createdAt,value
2023-05-07T00:00:59.297Z,100
2023-05-07T00:03:47.151Z,100
2023-05-07T00:06:35.104Z,100
2023-05-07T00:09:22.869Z,100
2023-05-07T00:12:10.869Z,100
2023-05-07T00:14:58.309Z,100
2023-05-07T00:17:46.654Z,100
2023-05-07T00:20:36.306Z,100
2023-05-07T00:23:23.790Z,100
2023-05-07T00:26:11.082Z,100
2023-05-07T00:28:58.466Z,100
2023-05-07T00:31:45.879Z,100
2023-05-07T00:34:35.568Z,100
2023-05-07T00:37:23.211Z,100
2023-05-07T00:40:10.948Z,100
2023-05-07T00:42:58.579Z,100
2023-05-07T00:45:45.938Z,100
2023-05-07T00:48:34.556Z,100
2023-05-07T00:51:22.021Z,100
2023-05-07T00:54:12.414Z,100
2023-05-07T00:56:59.969Z,100
2023-05-07T00:59:49.229Z,100
2023-05-07T01:02:37.716Z,100
2023-05-07T01:05:25.852Z,100
2023-05-07T01:08:16.058Z,100
2023-05-07T01:11:04.988Z,100
2023-05-07T01:13:53.503Z,100
2023-05-07T01:16:41.641Z,100
2023-05-07T01:19:30.106Z,100
2023-05-07T01:22:17.570Z,100
2023-05-07T01:25:16.054Z,100
2023-05-07T01:28:04.487Z,100
2023-05-07T01:30:51.897Z,100
2023-05-07T01:33:47.216Z,100
2023-05-07T01:36:37.290Z,100
2023-05-07T01:39:26.288Z,100
2023-05-07T01:42:15.342Z,100
2023-05-07T01:45:02.666Z,100
2023-05-07T01:47:51.249Z,100
2023-05-07T01:50:40.262Z,100
2023-05-07T01:53:28.765Z,100
2023-05-07T01:56:22.217Z,100
2023-05-07T01:59:11.006Z,100
2023-05-07T02:01:59.216Z,100
2023-05-07T02:04:46.697Z,100
2023-05-07T02:07:35.053Z,100
2023-05-07T02:10:22.439Z,100
2023-05-07T02:13:10.069Z,100
2023-05-07T02:15:57.386Z,100
2023-05-07T02:18:44.925Z,100
2023-05-07T02:21:32.272Z,100
2023-05-07T02:24:19.568Z,100
2023-05-07T02:27:07.336Z,100
2023-05-07T02:29:54.856Z,100
2023-05-07T02:32:42.217Z,100
2023-05-07T02:35:30.143Z,100
2023-05-07T02:38:17.485Z,100
2023-05-07T02:41:04.956Z,100
2023-05-07T02:43:52.270Z,100
2023-05-07T02:46:39.565Z,100
2023-05-07T02:49:26.850Z,100
2023-05-07T02:52:14.305Z,100
2023-05-07T02:55:01.530Z,100
2023-05-07T02:57:49.393Z,100
2023-05-07T03:00:36.661Z,100
2023-05-07T03:03:24.056Z,100
2023-05-07T03:06:11.425Z,100
2023-05-07T03:08:58.803Z,100
2023-05-07T03:11:46.011Z,100
2023-05-07T03:14:35.313Z,100
2023-05-07T03:17:22.673Z,100
2023-05-07T03:20:11.093Z,100
2023-05-07T03:22:59.055Z,100
2023-05-07T03:25:46.482Z,100
2023-05-07T03:28:35.047Z,100
2023-05-07T03:31:22.941Z,100
2023-05-07T03:34:10.688Z,100
2023-05-07T03:36:58.125Z,100
2023-05-07T03:39:46.212Z,100
2023-05-07T03:42:34.300Z,100
2023-05-07T03:45:21.790Z,100
2023-05-07T03:48:09.216Z,100
2023-05-07T03:50:56.554Z,100
2023-05-07T03:53:44.421Z,100
2023-05-07T03:56:31.790Z,100
2023-05-07T03:59:19.036Z,100
2023-05-07T04:02:06.413Z,100
2023-05-07T04:04:53.885Z,100
2023-05-07T04:07:41.134Z,100
2023-05-07T04:10:28.609Z,100
2023-05-07T04:13:15.930Z,100
2023-05-07T04:16:03.568Z,100
2023-05-07T04:18:51.944Z,100
2023-05-07T04:21:39.329Z,100
2023-05-07T04:24:26.611Z,100
2023-05-07T04:27:17.053Z,100
2023-05-07T04:30:04.511Z,100
2023-05-07T04:32:53.728Z,100
2023-05-07T04:35:41.887Z,100
2023-05-07T04:38:29.235Z,100
2023-05-07T04:41:17.280Z,100
2023-05-07T04:44:04.800Z,100
2023-05-07T04:46:52.129Z,100
2023-05-07T04:49:39.502Z,100
2023-05-07T04:52:27.398Z,100
2023-05-07T04:55:14.923Z,100
2023-05-07T04:58:02.505Z,100
2023-05-07T05:00:50.527Z,100
2023-05-07T05:03:38.370Z,100
2023-05-07T05:06:26.476Z,100
2023-05-07T05:09:13.779Z,100
2023-05-07T05:12:01.584Z,100
2023-05-07T05:14:49.392Z,100
2023-05-07T05:17:37.535Z,100
2023-05-07T05:20:25.041Z,100
2023-05-07T05:23:12.421Z,100
2023-05-07T05:25:59.790Z,100
2023-05-07T05:28:47.558Z,100
2023-05-07T05:31:35.450Z,100
2023-05-07T05:34:23.168Z,100
2023-05-07T05:37:10.547Z,100
2023-05-07T05:39:58.218Z,100
2023-05-07T05:42:45.421Z,100
2023-05-07T05:45:32.838Z,100
2023-05-07T05:48:20.239Z,100
2023-05-07T05:51:08.337Z,100
2023-05-07T05:53:55.564Z,100
2023-05-07T05:56:43.082Z,100
2023-05-07T05:59:30.546Z,100
2023-05-07T06:02:18.142Z,100
2023-05-07T06:05:05.867Z,100
2023-05-07T06:07:54.051Z,100
2023-05-07T06:10:41.897Z,100
2023-05-07T06:13:29.520Z,100
2023-05-07T06:16:17.022Z,100
2023-05-07T06:19:04.934Z,100
2023-05-07T06:21:52.284Z,100
2023-05-07T06:24:41.752Z,100
2023-05-07T06:27:29.129Z,100
2023-05-07T06:30:16.556Z,100
2023-05-07T06:33:03.892Z,100
2023-05-07T06:35:51.141Z,100
2023-05-07T06:38:38.657Z,100
2023-05-07T06:41:26.074Z,100
2023-05-07T06:44:13.359Z,100
2023-05-07T06:47:00.742Z,100
2023-05-07T06:49:48.510Z,100
2023-05-07T06:52:35.907Z,100
2023-05-07T06:55:23.347Z,100
2023-05-07T06:58:11.288Z,100
2023-05-07T07:00:58.751Z,100
2023-05-07T07:03:46.222Z,100
2023-05-07T07:06:34.929Z,100
2023-05-07T07:09:23.995Z,100
2023-05-07T07:12:12.126Z,100
2023-05-07T07:15:00.282Z,100
2023-05-07T07:17:48.519Z,100
2023-05-07T07:20:36.206Z,100
2023-05-07T07:23:23.513Z,100
2023-05-07T07:26:11.322Z,100
2023-05-07T07:28:58.677Z,100
2023-05-07T07:31:46.194Z,100
2023-05-07T07:34:35.200Z,100
2023-05-07T07:37:22.783Z,98.8
2023-05-07T07:40:11.164Z,97.9
2023-05-07T07:42:59.271Z,96.4
2023-05-07T07:45:46.990Z,95.5
2023-05-07T07:48:35.345Z,97.2
2023-05-07T07:51:22.749Z,97.5
2023-05-07T07:54:10.281Z,98.3
2023-05-07T07:56:57.635Z,93.6
2023-05-07T07:59:45.471Z,94.4
2023-05-07T08:02:33.191Z,97.3
2023-05-07T08:05:20.949Z,95.2
2023-05-07T08:08:08.487Z,95.4
2023-05-07T08:10:56.129Z,93.7
2023-05-07T08:13:43.503Z,89.8
2023-05-07T08:16:32.911Z,91.4
2023-05-07T08:19:20.272Z,90.7
2023-05-07T08:22:08.038Z,91.3
2023-05-07T08:24:56.154Z,91.3
2023-05-07T08:27:43.596Z,91.3
2023-05-07T08:30:30.980Z,91.7
2023-05-07T08:33:18.366Z,90.6
2023-05-07T08:36:05.823Z,90.5
2023-05-07T08:38:53.541Z,88.7
2023-05-07T08:41:41.024Z,88.5
2023-05-07T08:44:31.551Z,89.4
2023-05-07T08:47:22.254Z,90
2023-05-07T08:50:15.567Z,88.5
2023-05-07T08:53:03.490Z,85.4
2023-05-07T08:55:51.195Z,88.3
2023-05-07T08:58:39.470Z,89
2023-05-07T09:01:27.151Z,87.6
2023-05-07T09:04:14.834Z,86.6
2023-05-07T09:07:02.382Z,87.8
2023-05-07T09:09:51.045Z,87
2023-05-07T09:12:39.251Z,87.5
2023-05-07T09:15:26.731Z,88.3
2023-05-07T09:18:16.649Z,87.6
2023-05-07T09:21:04.362Z,88.3
2023-05-07T09:23:55.646Z,86.9
2023-05-07T09:26:43.068Z,86
2023-05-07T09:29:30.710Z,86.5
2023-05-07T09:32:21.053Z,85
2023-05-07T09:35:08.670Z,85.4
2023-05-07T09:38:03.886Z,85.6
2023-05-07T09:40:51.992Z,85.1
2023-05-07T09:43:48.793Z,85.3
2023-05-07T09:46:40.869Z,85.1
2023-05-07T09:49:29.938Z,84.2
2023-05-07T09:52:21.415Z,82.5
2023-05-07T09:55:10.760Z,83.4
2023-05-07T09:57:58.947Z,82.3
2023-05-07T10:00:48.527Z,81.6
2023-05-07T10:03:37.406Z,80.8
2023-05-07T10:06:26.942Z,77.6
2023-05-07T10:09:16.107Z,78.9
2023-05-07T10:12:04.229Z,76.7
2023-05-07T10:14:52.346Z,79.3
2023-05-07T10:17:42.229Z,78.2
2023-05-07T10:20:30.585Z,80.6
2023-05-07T10:23:19.396Z,77.2
2023-05-07T10:26:10.575Z,79.4
2023-05-07T10:28:59.435Z,77
2023-05-07T10:31:53.587Z,77.9
2023-05-07T10:34:49.569Z,79.5
2023-05-07T10:37:40.989Z,78.7
2023-05-07T10:40:28.944Z,81.1
2023-05-07T10:43:17.374Z,81.3
2023-05-07T10:46:04.815Z,79.3
2023-05-07T10:49:02.266Z,80
2023-05-07T10:51:53.774Z,79.1
2023-05-07T10:55:13.293Z,78.5
2023-05-07T10:58:17.083Z,78.1
2023-05-07T11:01:13.201Z,80
2023-05-07T11:04:02.482Z,80.1
2023-05-07T11:07:10.295Z,81.8
2023-05-07T11:10:12.191Z,81.1
2023-05-07T11:13:00.337Z,82.8
2023-05-07T11:15:48.185Z,79.9
2023-05-07T11:18:36.994Z,77.7
2023-05-07T11:21:34.163Z,78.6
2023-05-07T11:24:22.847Z,76.6
2023-05-07T11:27:10.852Z,75.4
2023-05-07T11:29:58.749Z,75.5
2023-05-07T11:32:46.812Z,71.6
2023-05-07T11:35:36.991Z,72
2023-05-07T11:38:25.867Z,70.4
2023-05-07T11:41:14.571Z,65.5
2023-05-07T11:44:04.150Z,66.4
2023-05-07T11:46:51.616Z,67.3
2023-05-07T11:49:39.320Z,66.8
2023-05-07T11:52:27.138Z,67.8
2023-05-07T11:55:14.801Z,68
2023-05-07T11:58:05.173Z,71.1
2023-05-07T12:00:52.848Z,65.5
2023-05-07T12:03:41.201Z,67.8
2023-05-07T12:06:31.317Z,60.8
2023-05-07T12:09:23.726Z,64.1
2023-05-07T12:12:11.636Z,62.5
2023-05-07T12:15:01.130Z,64.1
2023-05-07T12:17:49.011Z,64.6
2023-05-07T12:20:38.086Z,63.6
2023-05-07T12:23:25.910Z,67.8
2023-05-07T12:26:14.047Z,63.2
2023-05-07T12:29:02.081Z,66.5
2023-05-07T12:31:49.652Z,60.4
2023-05-07T12:34:37.083Z,60.3
2023-05-07T12:37:25.610Z,58.6
2023-05-07T12:40:13.191Z,59.2
2023-05-07T12:43:01.150Z,61
2023-05-07T12:45:48.858Z,61.1
2023-05-07T12:48:37.656Z,61
2023-05-07T12:51:31.403Z,63.5
2023-05-07T12:54:21.351Z,64.1
2023-05-07T12:57:16.652Z,65.5
2023-05-07T13:00:06.455Z,63
2023-05-07T13:02:55.106Z,63
2023-05-07T13:05:44.230Z,63.7
2023-05-07T13:08:31.669Z,65.8
2023-05-07T13:11:21.979Z,65.6
2023-05-07T13:14:09.429Z,64.8
2023-05-07T13:16:58.309Z,66.5
2023-05-07T13:19:45.752Z,65.9
2023-05-07T13:22:33.577Z,65.3
2023-05-07T13:25:21.019Z,65.5
2023-05-07T13:28:11.169Z,65.5
2023-05-07T13:30:59.697Z,64.8
2023-05-07T13:33:47.405Z,64.7
2023-05-07T13:36:35.852Z,66.1
2023-05-07T13:39:25.648Z,62.9
2023-05-07T13:42:13.436Z,61.1
2023-05-07T13:45:00.967Z,58.6
2023-05-07T13:47:49.699Z,56.2
2023-05-07T13:50:37.366Z,50.7
2023-05-07T13:53:24.905Z,49.2
2023-05-07T13:56:12.754Z,49.8
2023-05-07T13:59:01.140Z,48.6
2023-05-07T14:01:49.081Z,46.1
2023-05-07T14:04:36.575Z,45.6
2023-05-07T14:07:24.398Z,46.5
2023-05-07T14:10:11.889Z,47.7
2023-05-07T14:12:59.574Z,48.5
2023-05-07T14:15:47.324Z,50.9
2023-05-07T14:18:35.718Z,49.6
2023-05-07T14:21:24.236Z,44.7
2023-05-07T14:24:11.644Z,44.2
2023-05-07T14:26:59.062Z,41.1
2023-05-07T14:29:46.457Z,41.3
2023-05-07T14:32:36.688Z,39.4
2023-05-07T14:35:24.116Z,39.6
2023-05-07T14:38:11.790Z,39.8
2023-05-07T14:40:59.262Z,39.6
2023-05-07T14:43:46.851Z,42.7
2023-05-07T14:46:35.706Z,43
2023-05-07T14:49:24.137Z,43.2
2023-05-07T14:52:11.621Z,44.4
2023-05-07T14:54:59.022Z,43.9
2023-05-07T14:57:56.660Z,44.6
2023-05-07T15:00:44.070Z,40.8
2023-05-07T15:03:41.686Z,40
2023-05-07T15:06:29.168Z,41.4
2023-05-07T15:09:17.008Z,42.4
2023-05-07T15:12:14.349Z,43.8
2023-05-07T15:15:01.871Z,45.1
2023-05-07T15:17:55.261Z,44.5
2023-05-07T15:20:43.085Z,45.4
2023-05-07T15:23:30.651Z,46.1
2023-05-07T15:26:23.436Z,48.9
2023-05-07T15:29:11.504Z,46.9
2023-05-07T15:31:59.236Z,45.4
2023-05-07T15:34:46.797Z,45.1
2023-05-07T15:37:34.606Z,42.5
2023-05-07T15:40:22.048Z,39.7
2023-05-07T15:43:19.417Z,38.2
2023-05-07T15:46:07.363Z,39.1
2023-05-07T15:48:54.693Z,39.7
2023-05-07T15:51:42.571Z,40.1
2023-05-07T15:54:29.938Z,41.7
2023-05-07T15:57:17.380Z,44.5
2023-05-07T16:00:04.917Z,44.3
2023-05-07T16:02:54.933Z,43.7
2023-05-07T16:05:42.535Z,42.1
2023-05-07T16:08:30.453Z,42.5
2023-05-07T16:11:18.531Z,42.2
2023-05-07T16:14:05.988Z,43.3
2023-05-07T16:16:54.674Z,43.9
2023-05-07T16:19:43.763Z,44.9
2023-05-07T16:22:31.526Z,46.1
2023-05-07T16:25:18.940Z,46.5
2023-05-07T16:28:06.734Z,46.8
2023-05-07T16:30:54.267Z,48.1
2023-05-07T16:33:41.749Z,45.9
2023-05-07T16:36:29.677Z,45.8
2023-05-07T16:39:17.147Z,44.3
2023-05-07T16:42:04.689Z,43.4
2023-05-07T16:44:52.100Z,41.8
2023-05-07T16:47:39.583Z,40.8
2023-05-07T16:50:27.030Z,41.8
2023-05-07T16:53:14.646Z,43.3
2023-05-07T16:56:02.075Z,43.8
2023-05-07T16:58:51.024Z,44.9
2023-05-07T17:01:38.609Z,46
2023-05-07T17:04:27.383Z,48.3
2023-05-07T17:07:16.014Z,47.4
2023-05-07T17:10:03.730Z,47.7
2023-05-07T17:12:52.805Z,47.2
2023-05-07T17:15:40.249Z,46.3
2023-05-07T17:18:29.660Z,46.8
2023-05-07T17:21:17.184Z,46.1
2023-05-07T17:24:04.736Z,47
2023-05-07T17:26:57.783Z,46.6
2023-05-07T17:29:45.170Z,47.5
2023-05-07T17:32:32.606Z,48.2
2023-05-07T17:35:20.139Z,49.7
2023-05-07T17:38:07.588Z,49.8
2023-05-07T17:40:55.759Z,50.4
2023-05-07T17:43:43.779Z,50.9
2023-05-07T17:46:31.808Z,51.3
2023-05-07T17:49:19.438Z,52.4
2023-05-07T17:52:06.842Z,53.3
2023-05-07T17:54:54.973Z,54.2
2023-05-07T17:57:42.511Z,54.3
2023-05-07T18:00:29.978Z,55.2
2023-05-07T18:03:17.498Z,55.9
2023-05-07T18:06:04.947Z,56.5
2023-05-07T18:08:52.633Z,57.1
2023-05-07T18:11:40.401Z,57.5
2023-05-07T18:14:27.827Z,59.2
2023-05-07T18:17:15.354Z,60.7
2023-05-07T18:20:03.130Z,61.1
2023-05-07T18:22:55.915Z,62.5
2023-05-07T18:25:43.433Z,62.8
2023-05-07T18:28:32.122Z,63.3
2023-05-07T18:31:19.558Z,64.2
2023-05-07T18:34:07.022Z,66.7
2023-05-07T18:36:54.913Z,66.5
2023-05-07T18:39:43.271Z,67.2
2023-05-07T18:42:30.897Z,68
2023-05-07T18:45:18.378Z,69.3
2023-05-07T18:48:06.117Z,70.9
2023-05-07T18:50:53.795Z,70.4
2023-05-07T18:53:41.849Z,71.4
2023-05-07T18:56:29.359Z,73.3
2023-05-07T18:59:17.116Z,74.1
2023-05-07T19:02:04.844Z,75.4
2023-05-07T19:04:52.395Z,74.7
2023-05-07T19:07:40.397Z,75.5
2023-05-07T19:10:27.760Z,77
2023-05-07T19:13:15.283Z,77.1
2023-05-07T19:16:02.660Z,77.4
2023-05-07T19:18:50.358Z,78.2
2023-05-07T19:21:37.809Z,79.6
2023-05-07T19:24:25.234Z,79.8
2023-05-07T19:27:12.585Z,80.5
2023-05-07T19:30:00.210Z,81.7
2023-05-07T19:32:48.823Z,82.6
2023-05-07T19:35:36.532Z,82.9
2023-05-07T19:38:23.969Z,83.6
2023-05-07T19:41:11.685Z,82.8
2023-05-07T19:43:59.088Z,82.8
2023-05-07T19:46:46.741Z,83.1
2023-05-07T19:49:35.804Z,83.3
2023-05-07T19:52:23.544Z,83.5
2023-05-07T19:55:11.852Z,83.3
2023-05-07T19:57:59.489Z,81.9
2023-05-07T20:00:46.917Z,81.6
2023-05-07T20:03:35.409Z,82
2023-05-07T20:06:22.984Z,82.4
2023-05-07T20:09:11.047Z,81.9
2023-05-07T20:11:58.786Z,83.3
2023-05-07T20:14:46.315Z,84.1
2023-05-07T20:17:34.402Z,83.8
2023-05-07T20:20:22.371Z,85.1
2023-05-07T20:23:10.760Z,86.1
2023-05-07T20:25:58.073Z,85.3
2023-05-07T20:28:45.646Z,85.9
2023-05-07T20:31:33.153Z,84.3
2023-05-07T20:34:20.883Z,84.7
2023-05-07T20:37:08.303Z,85.3
2023-05-07T20:39:58.907Z,85.1
2023-05-07T20:42:47.797Z,86.6
2023-05-07T20:45:36.316Z,86.3
2023-05-07T20:48:24.027Z,86.5
2023-05-07T20:51:15.517Z,86.9
2023-05-07T20:54:02.767Z,87.1
2023-05-07T20:56:53.120Z,87.4
2023-05-07T20:59:41.980Z,87.9
2023-05-07T21:02:29.406Z,89
2023-05-07T21:05:16.963Z,89.7
2023-05-07T21:08:04.579Z,89.3
2023-05-07T21:10:51.940Z,90.4
2023-05-07T21:13:39.944Z,90.4
2023-05-07T21:16:27.333Z,91.3
2023-05-07T21:19:14.667Z,91
2023-05-07T21:22:01.967Z,90.4
2023-05-07T21:24:49.568Z,90.7
2023-05-07T21:27:37.089Z,91.7
2023-05-07T21:30:24.536Z,92.2
2023-05-07T21:33:12.019Z,92
2023-05-07T21:35:59.524Z,92.6
2023-05-07T21:38:46.961Z,92.6
2023-05-07T21:41:35.355Z,93.2
2023-05-07T21:44:22.907Z,93.2
2023-05-07T21:47:11.053Z,93.5
2023-05-07T21:49:59.281Z,93.3
2023-05-07T21:52:47.440Z,93.7
2023-05-07T21:55:35.806Z,92.8
2023-05-07T21:58:23.129Z,94
2023-05-07T22:01:10.712Z,93.8
2023-05-07T22:03:58.387Z,94.6
2023-05-07T22:06:46.042Z,94.3
2023-05-07T22:09:33.541Z,94.7
2023-05-07T22:12:20.778Z,95.2
2023-05-07T22:15:08.302Z,94.7
2023-05-07T22:17:56.358Z,93.8
2023-05-07T22:20:43.806Z,93.5
2023-05-07T22:23:31.068Z,94.4
2023-05-07T22:26:18.559Z,95.7
2023-05-07T22:29:06.765Z,95.1
2023-05-07T22:31:54.200Z,95.6
2023-05-07T22:34:41.578Z,96.2
2023-05-07T22:37:28.872Z,95.9
2023-05-07T22:40:16.446Z,96.1
2023-05-07T22:43:03.929Z,96.5
2023-05-07T22:45:51.386Z,96.1
2023-05-07T22:48:44.544Z,96.8
2023-05-07T22:51:31.780Z,97.2
2023-05-07T22:54:19.301Z,97.2
2023-05-07T22:57:06.778Z,97
2023-05-07T22:59:54.124Z,96.8
2023-05-07T23:02:41.823Z,96.8
2023-05-07T23:05:29.222Z,96.3
2023-05-07T23:08:16.949Z,95.8
2023-05-07T23:11:04.486Z,97
2023-05-07T23:13:52.542Z,97.8
2023-05-07T23:16:39.817Z,97.9
2023-05-07T23:19:27.305Z,97.7
2023-05-07T23:22:14.701Z,97.8
2023-05-07T23:25:02.066Z,97.7
2023-05-07T23:27:50.164Z,98.4
2023-05-07T23:30:37.560Z,97.9
2023-05-07T23:33:25.515Z,98.1
2023-05-07T23:36:12.763Z,97.9
2023-05-07T23:39:00.195Z,98.7
2023-05-07T23:41:47.700Z,98.1
2023-05-07T23:44:36.053Z,98.3
2023-05-07T23:47:23.312Z,97.9
2023-05-07T23:50:10.901Z,98.6
2023-05-07T23:52:58.346Z,98.6
2023-05-07T23:55:45.828Z,98.4
2023-05-07T23:58:33.237Z,98.6
